Time;durP1;ratioP1;P1;durP2;ratioP2;P2;SDS_P1;SDS_P2;PMS_P1;PMS_P2;Temp;Humidity;BMP_temperature;BMP_pressure;BME280_temperature;BME280_humidity;BME280_pressure;Samples;Min_cycle;Max_cycle;Signal;HPM_P1;HPM_P2
2023/08/07 00:01:48;;;;;;;4.77;3.97;;;14.40;99.90;;;;;;5052087;28;20494;-80
2023/08/07 00:04:14;;;;;;;7.30;4.30;;;14.40;99.90;;;;;;5054829;28;20455;-80
2023/08/07 00:06:41;;;;;;;8.00;3.57;;;14.40;99.90;;;;;;5054969;28;20464;-80
2023/08/07 00:09:09;;;;;;;4.93;3.43;;;14.40;99.90;;;;;;5055205;28;20478;-79
2023/08/07 00:11:36;;;;;;;4.43;3.00;;;14.30;99.90;;;;;;5044771;28;20822;-80
2023/08/07 00:14:03;;;;;;;4.70;2.80;;;14.30;99.90;;;;;;5035583;28;20474;-79
2023/08/07 00:16:30;;;;;;;5.00;4.00;;;14.40;99.90;;;;;;5035755;28;20456;-79
2023/08/07 00:18:57;;;;;;;2.87;2.50;;;14.30;99.90;;;;;;5035443;28;20473;-80
2023/08/07 00:21:24;;;;;;;4.20;2.70;;;14.30;99.90;;;;;;5035297;28;20465;-80
2023/08/07 00:23:51;;;;;;;2.90;2.43;;;14.30;99.90;;;;;;5036155;28;20453;-80
2023/08/07 00:26:19;;;;;;;4.53;2.70;;;14.30;99.90;;;;;;5034967;28;20546;-80
2023/08/07 00:28:46;;;;;;;3.50;2.20;;;14.30;99.90;;;;;;5036205;28;20849;-80
2023/08/07 00:31:13;;;;;;;2.30;2.00;;;14.30;99.90;;;;;;5035491;28;20461;-80
2023/08/07 00:33:40;;;;;;;3.00;2.17;;;14.30;99.90;;;;;;5036313;28;20454;-80
2023/08/07 00:36:07;;;;;;;2.87;1.93;;;14.30;99.90;;;;;;5036034;28;20450;-81
2023/08/07 00:38:34;;;;;;;4.47;2.27;;;14.30;99.90;;;;;;5036381;28;21018;-79
2023/08/07 00:41:00;;;;;;;6.53;3.10;;;14.30;99.90;;;;;;5036780;28;20468;-80
2023/08/07 00:43:28;;;;;;;6.53;2.80;;;14.30;99.90;;;;;;5039621;28;20485;-79
2023/08/07 00:45:56;;;;;;;5.27;2.70;;;14.20;99.90;;;;;;5037818;28;20961;-80
2023/08/07 00:48:22;;;;;;;3.33;2.40;;;14.30;99.90;;;;;;5034942;28;20481;-80
2023/08/07 00:50:50;;;;;;;11.27;3.37;;;14.20;99.90;;;;;;5042011;28;20466;-81
2023/08/07 00:53:17;;;;;;;6.83;2.83;;;14.30;99.90;;;;;;5055204;28;20528;-78
2023/08/07 00:55:44;;;;;;;6.00;2.70;;;14.30;99.90;;;;;;5054978;28;20895;-81
2023/08/07 00:58:11;;;;;;;6.50;3.23;;;14.30;99.90;;;;;;5053711;28;20479;-79
2023/08/07 01:00:41;;;;;;;5.80;2.40;;;14.30;99.90;;;;;;5055244;28;20453;-81
2023/08/07 01:03:08;;;;;;;9.53;2.90;;;14.30;99.90;;;;;;5048485;28;20490;-80
2023/08/07 01:05:35;;;;;;;9.90;2.87;;;14.30;99.90;;;;;;5054229;28;20454;-79
2023/08/07 01:08:03;;;;;;;4.00;2.87;;;14.30;99.90;;;;;;5054121;28;20476;-81
2023/08/07 01:10:36;;;;;;;5.10;2.27;;;14.30;99.90;;;;;;5054741;28;20457;-81
2023/08/07 01:13:10;;;;;;;6.03;2.47;;;14.40;99.90;;;;;;5053791;28;20458;-79
2023/08/07 01:15:40;;;;;;;8.57;3.37;;;14.40;99.90;;;;;;5053645;28;20451;-80
2023/08/07 01:18:08;;;;;;;5.70;3.83;;;14.40;99.90;;;;;;5053414;28;20830;-79
2023/08/07 01:20:36;;;;;;;5.30;3.30;;;14.40;99.90;;;;;;5044302;28;20453;-79
2023/08/07 01:23:04;;;;;;;4.90;3.47;;;14.40;99.90;;;;;;5052153;28;20578;-80
2023/08/07 01:25:31;;;;;;;4.57;3.20;;;14.40;99.90;;;;;;5053484;28;20455;-79
2023/08/07 01:28:06;;;;;;;3.90;3.40;;;14.40;99.90;;;;;;5053055;28;20457;-80
2023/08/07 01:30:39;;;;;;;4.40;3.73;;;14.40;99.90;;;;;;5053820;28;20459;-80
2023/08/07 01:33:11;;;;;;;4.47;3.93;;;14.40;99.90;;;;;;5054262;28;20463;-80
2023/08/07 01:35:44;;;;;;;3.73;3.43;;;14.30;99.90;;;;;;5052355;28;20464;-80
2023/08/07 01:38:13;;;;;;;6.30;3.43;;;14.30;99.90;;;;;;5047678;28;20478;-79
2023/08/07 01:40:41;;;;;;;4.03;3.63;;;14.30;99.90;;;;;;5057362;28;20445;-79
2023/08/07 01:43:08;;;;;;;6.77;3.40;;;14.20;99.90;;;;;;5057443;28;20486;-80
2023/08/07 01:45:35;;;;;;;4.00;2.63;;;14.30;99.90;;;;;;5057766;28;20446;-79
2023/08/07 01:48:02;;;;;;;5.20;3.50;;;14.30;99.90;;;;;;5058097;28;20479;-81
2023/08/07 01:50:29;;;;;;;5.13;3.20;;;14.30;99.90;;;;;;5055540;28;20439;-79
2023/08/07 01:52:56;;;;;;;10.30;3.10;;;14.30;99.90;;;;;;5037768;28;20460;-80
2023/08/07 01:55:24;;;;;;;5.50;2.50;;;14.30;99.90;;;;;;5037681;28;20901;-79
2023/08/07 01:57:51;;;;;;;6.77;3.67;;;14.30;99.90;;;;;;5038325;28;20547;-79
2023/08/07 02:00:18;;;;;;;5.40;2.43;;;14.20;99.90;;;;;;5057327;28;20462;-79
2023/08/07 02:02:46;;;;;;;4.23;2.67;;;14.30;99.90;;;;;;5056337;28;20886;-78
2023/08/07 02:05:13;;;;;;;5.50;2.73;;;14.20;99.90;;;;;;5057345;28;21019;-81
2023/08/07 02:07:40;;;;;;;3.70;2.30;;;14.20;99.90;;;;;;5057498;28;20535;-79
2023/08/07 02:10:07;;;;;;;7.83;2.20;;;14.20;99.90;;;;;;5057439;28;20454;-81
2023/08/07 02:12:35;;;;;;;7.60;3.03;;;14.20;99.90;;;;;;5057227;28;20961;-79
2023/08/07 02:15:03;;;;;;;4.33;2.27;;;14.10;99.90;;;;;;5057177;28;20446;-81
2023/08/07 02:17:30;;;;;;;11.47;3.33;;;14.10;99.90;;;;;;5056960;28;20466;-81
2023/08/07 02:19:57;;;;;;;6.57;2.80;;;14.10;99.90;;;;;;5057615;28;20456;-81
2023/08/07 02:22:24;;;;;;;4.23;2.43;;;14.10;99.90;;;;;;5057092;28;20481;-80
2023/08/07 02:24:51;;;;;;;5.00;3.40;;;14.20;99.90;;;;;;5057784;28;20453;-81
2023/08/07 02:27:18;;;;;;;3.07;2.77;;;14.10;99.90;;;;;;5057344;28;20457;-80
2023/08/07 02:29:46;;;;;;;4.37;2.67;;;14.20;99.90;;;;;;5056973;28;20454;-79
2023/08/07 02:32:13;;;;;;;4.10;2.57;;;14.10;99.90;;;;;;5057211;28;20448;-80
2023/08/07 02:34:40;;;;;;;5.70;2.73;;;14.10;99.90;;;;;;5046628;28;20453;-79
2023/08/07 02:37:07;;;;;;;3.00;2.23;;;14.10;99.90;;;;;;5037607;28;20456;-81
2023/08/07 02:39:33;;;;;;;5.30;2.20;;;14.20;99.90;;;;;;5038031;28;20984;-80
2023/08/07 02:42:00;;;;;;;3.60;1.90;;;14.10;99.90;;;;;;5038043;28;20457;-81
2023/08/07 02:44:27;;;;;;;2.20;1.80;;;14.10;99.90;;;;;;5038634;28;20829;-80
2023/08/07 02:46:55;;;;;;;4.20;2.70;;;14.10;99.90;;;;;;5038679;28;20474;-81
2023/08/07 02:49:22;;;;;;;4.00;2.00;;;14.10;99.90;;;;;;5038890;28;20491;-81
2023/08/07 02:51:49;;;;;;;3.77;1.83;;;14.10;99.90;;;;;;5051431;28;20459;-79
2023/08/07 02:54:15;;;;;;;4.03;2.50;;;14.10;99.90;;;;;;5065035;28;20490;-78
2023/08/07 02:56:42;;;;;;;4.07;2.23;;;14.10;99.90;;;;;;5054581;28;20460;-78
2023/08/07 02:59:09;;;;;;;3.93;2.20;;;14.10;99.90;;;;;;5062931;28;20814;-79
2023/08/07 03:01:36;;;;;;;2.97;2.53;;;14.10;99.90;;;;;;5063564;28;20462;-80
2023/08/07 03:04:04;;;;;;;3.40;2.13;;;14.20;99.90;;;;;;5034596;28;20498;-80
2023/08/07 03:06:31;;;;;;;4.50;2.40;;;14.10;99.90;;;;;;5033805;28;20531;-81
2023/08/07 03:08:58;;;;;;;4.27;2.10;;;14.10;99.90;;;;;;5034112;28;20488;-79
2023/08/07 03:11:25;;;;;;;3.50;2.37;;;14.10;99.90;;;;;;5034108;28;20461;-81
2023/08/07 03:13:52;;;;;;;4.90;2.50;;;14.10;99.90;;;;;;5033959;28;20456;-79
2023/08/07 03:16:18;;;;;;;4.60;2.00;;;14.10;99.90;;;;;;5033721;28;20483;-79
2023/08/07 03:18:46;;;;;;;5.33;2.43;;;14.10;99.90;;;;;;5034420;28;20471;-79
2023/08/07 03:21:14;;;;;;;5.47;2.33;;;14.10;99.90;;;;;;5034205;28;20458;-80
2023/08/07 03:23:41;;;;;;;8.03;2.40;;;14.10;99.90;;;;;;5034523;28;21105;-78
2023/08/07 03:26:10;;;;;;;3.10;1.93;;;14.10;99.90;;;;;;5033857;28;20538;-79
2023/08/07 03:28:37;;;;;;;3.87;1.80;;;14.10;99.90;;;;;;5034088;28;20473;-79
2023/08/07 03:31:04;;;;;;;3.40;1.80;;;14.10;99.90;;;;;;5034036;28;20446;-79
2023/08/07 03:33:31;;;;;;;4.43;2.10;;;14.10;99.90;;;;;;5034244;28;20446;-78
2023/08/07 03:35:58;;;;;;;3.00;2.10;;;14.10;99.90;;;;;;5034142;28;20451;-78
2023/08/07 03:38:26;;;;;;;3.70;2.20;;;14.00;99.90;;;;;;5033909;28;20475;-79
2023/08/07 03:40:53;;;;;;;5.00;2.13;;;14.10;99.90;;;;;;5034185;28;20467;-79
2023/08/07 03:43:20;;;;;;;3.20;2.03;;;14.00;99.90;;;;;;5052700;28;20495;-79
2023/08/07 03:45:47;;;;;;;3.77;3.13;;;14.00;99.90;;;;;;5053642;28;20461;-79
2023/08/07 03:48:13;;;;;;;6.13;3.23;;;14.00;99.90;;;;;;5053652;28;20472;-79
2023/08/07 03:50:40;;;;;;;4.30;3.07;;;14.00;99.90;;;;;;5052930;28;20938;-78
2023/08/07 03:53:07;;;;;;;5.87;3.20;;;14.00;99.90;;;;;;5034651;28;20451;-78
2023/08/07 03:55:35;;;;;;;5.10;3.60;;;14.00;99.90;;;;;;5037747;28;20551;-78
2023/08/07 03:58:02;;;;;;;11.60;5.27;;;14.00;99.90;;;;;;5054056;28;20836;-79
2023/08/07 04:00:29;;;;;;;5.60;4.90;;;13.90;99.90;;;;;;5052077;28;20458;-80
2023/08/07 04:02:56;;;;;;;9.30;5.17;;;13.90;99.90;;;;;;5052156;28;20491;-79
2023/08/07 04:05:23;;;;;;;10.97;5.40;;;13.90;99.90;;;;;;5038101;28;20447;-78
2023/08/07 04:07:50;;;;;;;8.20;5.50;;;13.80;99.90;;;;;;5042484;28;20476;-80
2023/08/07 04:10:17;;;;;;;9.20;5.17;;;13.90;99.90;;;;;;5044088;28;20466;-78
2023/08/07 04:12:45;;;;;;;9.80;5.07;;;13.80;99.90;;;;;;5040853;28;20479;-78
2023/08/07 04:15:11;;;;;;;8.77;4.97;;;13.80;99.90;;;;;;5041023;28;20466;-77
2023/08/07 04:17:38;;;;;;;14.50;5.80;;;13.80;99.90;;;;;;5045775;28;20472;-80
2023/08/07 04:20:08;;;;;;;10.20;5.50;;;13.80;99.90;;;;;;5041825;28;20966;-79
2023/08/07 04:22:35;;;;;;;10.17;5.47;;;13.80;99.90;;;;;;5040780;28;20468;-78
2023/08/07 04:25:02;;;;;;;11.17;5.53;;;13.80;99.90;;;;;;5039177;28;20443;-80
2023/08/07 04:27:29;;;;;;;11.47;5.00;;;13.70;99.90;;;;;;5043334;28;20479;-78
2023/08/07 04:29:57;;;;;;;9.00;4.70;;;13.70;99.90;;;;;;5042315;28;20459;-80
2023/08/07 04:32:24;;;;;;;10.57;5.13;;;13.70;99.90;;;;;;5032781;28;20452;-81
2023/08/07 04:34:51;;;;;;;10.53;5.30;;;13.70;99.90;;;;;;5044096;28;20505;-80
2023/08/07 04:37:18;;;;;;;12.50;5.87;;;13.80;99.90;;;;;;5043646;28;20463;-79
2023/08/07 04:39:45;;;;;;;14.90;6.10;;;13.80;99.90;;;;;;5043254;28;20467;-81
2023/08/07 04:42:11;;;;;;;21.57;6.90;;;13.80;99.90;;;;;;5037362;28;20462;-81
2023/08/07 04:44:41;;;;;;;14.23;6.53;;;13.80;99.90;;;;;;5037275;28;20503;-80
2023/08/07 04:47:09;;;;;;;11.70;5.67;;;13.90;99.90;;;;;;5035054;28;20460;-81
2023/08/07 04:49:36;;;;;;;13.07;7.30;;;13.90;99.90;;;;;;5042530;28;20456;-80
2023/08/07 04:52:03;;;;;;;9.63;6.20;;;13.90;99.90;;;;;;5036599;28;20460;-80
2023/08/07 04:54:30;;;;;;;12.07;7.50;;;13.90;99.90;;;;;;5036611;28;20452;-81
2023/08/07 04:56:56;;;;;;;18.50;6.93;;;13.90;99.90;;;;;;5039349;28;20455;-80
2023/08/07 04:59:23;;;;;;;12.57;6.53;;;13.90;99.90;;;;;;5046098;28;20506;-79
2023/08/07 05:01:50;;;;;;;16.03;7.17;;;13.90;99.90;;;;;;5051428;28;20452;-78
2023/08/07 05:04:18;;;;;;;12.10;6.10;;;13.80;99.90;;;;;;5058893;28;20564;-81
2023/08/07 05:06:45;;;;;;;15.87;6.87;;;13.90;99.90;;;;;;5048328;28;20850;-80
2023/08/07 05:09:12;;;;;;;11.00;5.07;;;13.90;99.90;;;;;;5072564;22;20853;-79
2023/08/07 05:11:39;;;;;;;16.33;5.20;;;13.90;99.90;;;;;;5042153;28;20444;-78
2023/08/07 05:14:05;;;;;;;7.93;5.00;;;13.90;99.90;;;;;;5037288;28;20445;-80
2023/08/07 05:16:32;;;;;;;9.33;5.10;;;13.80;99.90;;;;;;5038198;28;20829;-78
2023/08/07 05:18:59;;;;;;;15.27;6.53;;;13.80;99.90;;;;;;5020349;28;20824;-81
2023/08/07 05:21:27;;;;;;;12.20;7.47;;;13.80;99.90;;;;;;5037918;28;20542;-80
2023/08/07 05:23:55;;;;;;;10.20;8.10;;;13.80;99.90;;;;;;5037668;28;20491;-81
2023/08/07 05:26:22;;;;;;;11.30;8.20;;;13.80;99.90;;;;;;5037445;28;20506;-78
2023/08/07 05:28:49;;;;;;;11.60;8.30;;;13.80;99.90;;;;;;5038019;28;20553;-79
2023/08/07 05:31:15;;;;;;;16.00;9.90;;;13.80;99.90;;;;;;5038543;28;20510;-80
2023/08/07 05:33:42;;;;;;;11.17;9.77;;;13.80;99.90;;;;;;5039930;28;20984;-81
2023/08/07 05:36:09;;;;;;;13.77;8.30;;;13.80;99.90;;;;;;5039728;28;20448;-81
2023/08/07 05:38:37;;;;;;;14.83;9.30;;;13.80;99.90;;;;;;5039419;28;20852;-81
2023/08/07 05:41:04;;;;;;;10.13;7.33;;;13.80;99.90;;;;;;5039879;28;20469;-79
2023/08/07 05:43:31;;;;;;;11.50;7.77;;;13.90;99.90;;;;;;5038954;28;20492;-81
2023/08/07 05:45:58;;;;;;;12.73;8.33;;;13.90;99.90;;;;;;5039141;28;20452;-79
2023/08/07 05:48:24;;;;;;;11.43;8.40;;;13.90;99.90;;;;;;5038678;28;20478;-81
2023/08/07 05:50:52;;;;;;;9.57;7.90;;;13.90;99.90;;;;;;5037705;28;20452;-80
2023/08/07 05:53:20;;;;;;;12.00;7.70;;;13.80;99.90;;;;;;5037647;28;20443;-81
2023/08/07 05:55:48;;;;;;;9.87;8.17;;;13.80;99.90;;;;;;5037416;28;20476;-79
2023/08/07 05:58:15;;;;;;;9.40;6.93;;;13.80;99.90;;;;;;5037197;28;20473;-82
2023/08/07 06:00:42;;;;;;;10.97;7.77;;;13.80;99.90;;;;;;5038787;28;20470;-80
2023/08/07 06:03:09;;;;;;;11.10;7.03;;;13.80;99.90;;;;;;5039498;28;20944;-80
2023/08/07 06:05:36;;;;;;;9.47;8.23;;;13.80;99.90;;;;;;5039174;28;20457;-81
2023/08/07 06:08:02;;;;;;;11.37;6.90;;;13.80;99.90;;;;;;5039118;28;20474;-80
2023/08/07 06:10:29;;;;;;;11.47;6.67;;;13.70;99.90;;;;;;5039376;28;20450;-79
2023/08/07 06:12:57;;;;;;;9.33;7.93;;;13.70;99.90;;;;;;5039157;28;21100;-81
2023/08/07 06:15:24;;;;;;;9.37;7.73;;;13.60;99.90;;;;;;5039535;28;20449;-81
2023/08/07 06:17:51;;;;;;;14.33;7.90;;;13.70;99.90;;;;;;5039476;28;20964;-80
2023/08/07 06:20:19;;;;;;;15.80;8.77;;;13.70;99.90;;;;;;5039635;28;20524;-82
2023/08/07 06:22:47;;;;;;;10.30;8.33;;;13.70;99.90;;;;;;5040220;28;20813;-79
2023/08/07 06:25:14;;;;;;;10.93;8.50;;;13.80;99.90;;;;;;5040190;28;20489;-80
2023/08/07 06:27:40;;;;;;;14.00;8.07;;;13.80;99.90;;;;;;5040720;28;20447;-82
2023/08/07 06:30:10;;;;;;;11.50;8.17;;;13.80;99.90;;;;;;5041727;28;20611;-79
2023/08/07 06:32:37;;;;;;;14.20;7.33;;;13.80;99.90;;;;;;5040548;28;20546;-82
2023/08/07 06:35:05;;;;;;;9.10;7.57;;;13.90;99.90;;;;;;5041433;28;20456;-79
2023/08/07 06:37:32;;;;;;;8.50;7.27;;;13.90;99.90;;;;;;5038249;28;20803;-79
2023/08/07 06:39:59;;;;;;;11.70;8.27;;;13.90;99.90;;;;;;5038018;28;20829;-79
2023/08/07 06:42:25;;;;;;;11.10;7.83;;;13.90;99.90;;;;;;5037333;28;20451;-79
2023/08/07 06:44:52;;;;;;;9.00;6.60;;;14.00;99.90;;;;;;5036860;28;20528;-78
2023/08/07 06:47:20;;;;;;;10.20;6.70;;;14.00;99.90;;;;;;5036405;28;20436;-79
2023/08/07 06:49:47;;;;;;;6.33;5.00;;;14.00;99.90;;;;;;5036764;28;20473;-80
2023/08/07 06:52:14;;;;;;;8.03;5.70;;;14.10;99.90;;;;;;5037068;28;20535;-80
2023/08/07 06:54:41;;;;;;;10.90;4.70;;;14.10;99.90;;;;;;5037848;28;20960;-80
2023/08/07 06:57:08;;;;;;;6.47;4.30;;;14.10;99.90;;;;;;5036270;28;20483;-82
2023/08/07 06:59:34;;;;;;;8.67;3.80;;;14.10;99.90;;;;;;5036880;28;20989;-80
2023/08/07 07:02:01;;;;;;;8.77;3.97;;;14.20;99.90;;;;;;5036949;28;20455;-80
2023/08/07 07:04:29;;;;;;;6.47;3.80;;;14.20;99.90;;;;;;5036897;28;20499;-82
2023/08/07 07:06:56;;;;;;;5.87;3.80;;;14.10;99.90;;;;;;5036484;28;20460;-78
2023/08/07 07:09:23;;;;;;;8.07;4.50;;;14.20;99.90;;;;;;5036633;28;20483;-79
2023/08/07 07:11:50;;;;;;;5.60;3.87;;;14.10;99.90;;;;;;5037023;28;20798;-79
2023/08/07 07:14:17;;;;;;;5.47;3.00;;;14.20;99.90;;;;;;5036558;28;20551;-80
2023/08/07 07:16:43;;;;;;;6.97;4.30;;;14.20;99.90;;;;;;5036153;28;20467;-80
2023/08/07 07:19:11;;;;;;;6.93;4.50;;;14.20;99.90;;;;;;5037257;28;20557;-80
2023/08/07 07:21:39;;;;;;;7.23;3.27;;;14.30;99.90;;;;;;5037293;28;20614;-80
2023/08/07 07:24:06;;;;;;;5.37;4.87;;;14.30;99.90;;;;;;5037235;28;20502;-79
2023/08/07 07:26:33;;;;;;;11.80;4.67;;;14.30;99.90;;;;;;5036783;28;20487;-82
2023/08/07 07:29:00;;;;;;;6.53;4.60;;;14.30;99.90;;;;;;5036988;28;20548;-80
2023/08/07 07:31:26;;;;;;;7.23;4.20;;;14.30;99.90;;;;;;5036954;28;20449;-82
2023/08/07 07:33:54;;;;;;;6.40;3.47;;;14.30;99.90;;;;;;5037454;28;20445;-82
2023/08/07 07:36:21;;;;;;;8.37;4.50;;;14.30;99.90;;;;;;5035612;28;20462;-81
2023/08/07 07:38:49;;;;;;;7.53;4.00;;;14.30;99.90;;;;;;5037111;28;20471;-82
2023/08/07 07:41:17;;;;;;;5.47;3.90;;;14.30;99.90;;;;;;5036710;28;20542;-80
2023/08/07 07:43:44;;;;;;;12.90;5.90;;;14.30;99.90;;;;;;5038022;28;20458;-82
2023/08/07 07:46:11;;;;;;;4.80;3.67;;;14.30;99.90;;;;;;5037601;28;20536;-82
2023/08/07 07:48:38;;;;;;;9.33;4.17;;;14.30;99.90;;;;;;5037606;28;20473;-82
2023/08/07 07:51:05;;;;;;;4.90;4.40;;;14.30;99.90;;;;;;5038112;28;20449;-80
2023/08/07 07:53:32;;;;;;;5.57;3.70;;;14.30;99.90;;;;;;5037406;28;20459;-80
2023/08/07 07:56:00;;;;;;;5.87;3.67;;;14.30;99.90;;;;;;5036867;28;20472;-80
2023/08/07 07:58:27;;;;;;;5.20;3.77;;;14.40;99.90;;;;;;5037641;28;20501;-82
2023/08/07 08:00:54;;;;;;;4.07;3.60;;;14.40;99.90;;;;;;5037094;28;20447;-80
2023/08/07 08:03:21;;;;;;;7.70;4.50;;;14.40;99.90;;;;;;5037583;28;20455;-82
2023/08/07 08:05:50;;;;;;;5.80;4.30;;;14.40;99.90;;;;;;5036595;28;20495;-80
2023/08/07 08:08:17;;;;;;;8.10;3.97;;;14.40;99.90;;;;;;5036881;28;20478;-81
2023/08/07 08:10:44;;;;;;;8.33;5.03;;;14.40;99.90;;;;;;5035783;28;20467;-81
2023/08/07 08:13:13;;;;;;;8.97;5.10;;;14.50;99.90;;;;;;5036163;28;20461;-82
2023/08/07 08:15:39;;;;;;;6.47;4.40;;;14.50;99.90;;;;;;5036210;28;20445;-80
2023/08/07 08:18:06;;;;;;;7.73;3.83;;;14.60;99.90;;;;;;5035948;28;21072;-82
2023/08/07 08:20:33;;;;;;;4.87;3.60;;;14.60;99.90;;;;;;5036037;28;20445;-81
2023/08/07 08:23:00;;;;;;;5.00;2.53;;;14.60;99.90;;;;;;5037122;28;20451;-82
2023/08/07 08:25:27;;;;;;;4.63;2.90;;;14.60;99.90;;;;;;5036190;28;20488;-81
2023/08/07 08:27:53;;;;;;;3.53;2.63;;;14.60;99.90;;;;;;5036137;28;20539;-81
2023/08/07 08:30:22;;;;;;;4.47;3.00;;;14.60;99.90;;;;;;5036636;28;20543;-81
2023/08/07 08:32:49;;;;;;;3.70;3.07;;;14.60;99.90;;;;;;5036473;28;21031;-82
2023/08/07 08:35:16;;;;;;;3.97;2.83;;;14.70;99.90;;;;;;5035378;28;20978;-82
2023/08/07 08:37:43;;;;;;;4.20;3.17;;;14.70;99.90;;;;;;5035490;28;20445;-81
2023/08/07 08:40:16;;;;;;;7.53;3.20;;;14.70;99.90;;;;;;5035361;28;21023;-80
2023/08/07 08:42:44;;;;;;;4.40;1.87;;;14.70;99.90;;;;;;5035790;28;20517;-80
2023/08/07 08:45:13;;;;;;;3.63;1.93;;;14.70;99.90;;;;;;5035583;28;20484;-81
2023/08/07 08:47:43;;;;;;;7.07;2.57;;;14.70;99.90;;;;;;5036400;28;20451;-81
2023/08/07 08:50:13;;;;;;;6.13;2.97;;;14.70;99.90;;;;;;5037337;28;20440;-81
2023/08/07 08:52:44;;;;;;;7.00;3.67;;;14.80;99.90;;;;;;5034893;28;20458;-80
2023/08/07 08:55:11;;;;;;;4.10;2.80;;;14.70;99.90;;;;;;5034839;28;20445;-83
2023/08/07 08:57:39;;;;;;;4.93;2.67;;;14.70;99.90;;;;;;5035059;28;20955;-80
2023/08/07 09:00:17;;;;;;;6.50;3.30;;;14.80;99.90;;;;;;5034732;28;20448;-80
2023/08/07 09:02:46;;;;;;;5.40;2.90;;;14.90;99.90;;;;;;5034993;28;20460;-81
2023/08/07 09:05:12;;;;;;;8.77;4.13;;;15.00;99.90;;;;;;5034661;28;20872;-79
2023/08/07 09:07:39;;;;;;;11.30;5.50;;;15.10;99.90;;;;;;5034468;28;20498;-81
2023/08/07 09:10:08;;;;;;;10.20;4.13;;;15.20;99.90;;;;;;5035102;28;20539;-79
2023/08/07 09:12:38;;;;;;;6.10;4.00;;;15.30;99.90;;;;;;5034424;28;21025;-80
2023/08/07 09:15:06;;;;;;;5.93;3.80;;;15.40;99.90;;;;;;5036118;28;20453;-79
2023/08/07 09:17:39;;;;;;;7.67;4.73;;;15.50;99.90;;;;;;5035354;28;20541;-79
2023/08/07 09:20:11;;;;;;;13.27;5.43;;;15.70;99.90;;;;;;5038464;28;20524;-79
2023/08/07 09:22:39;;;;;;;15.10;5.43;;;15.80;99.90;;;;;;5032513;28;20487;-80
2023/08/07 09:25:07;;;;;;;10.40;5.97;;;15.80;99.90;;;;;;5032424;28;20488;-82
2023/08/07 09:27:35;;;;;;;12.70;5.80;;;15.90;99.90;;;;;;5033098;28;20551;-79
2023/08/07 09:30:02;;;;;;;9.93;4.20;;;16.00;99.90;;;;;;5033091;28;20843;-79
2023/08/07 09:32:30;;;;;;;10.73;4.87;;;16.00;99.90;;;;;;5033009;28;20928;-78
2023/08/07 09:34:57;;;;;;;7.77;4.93;;;16.10;99.90;;;;;;5032673;28;20488;-79
2023/08/07 09:37:26;;;;;;;5.50;4.20;;;16.20;99.90;;;;;;5032675;28;20999;-78
2023/08/07 09:39:53;;;;;;;14.63;5.70;;;16.20;99.90;;;;;;5033683;28;20925;-81
2023/08/07 09:42:19;;;;;;;15.77;5.90;;;16.00;99.90;;;;;;5033063;28;20453;-78
2023/08/07 09:44:48;;;;;;;11.90;5.70;;;16.10;99.90;;;;;;5033105;28;20514;-79
2023/08/07 09:47:16;;;;;;;12.13;4.83;;;16.20;99.90;;;;;;5033340;28;20467;-81
2023/08/07 09:49:44;;;;;;;11.73;4.47;;;16.20;99.90;;;;;;5033263;28;20472;-80
2023/08/07 09:52:14;;;;;;;13.30;5.17;;;16.30;99.90;;;;;;5033792;28;20979;-79
2023/08/07 09:54:42;;;;;;;6.90;4.37;;;16.20;99.90;;;;;;5034376;28;20448;-79
2023/08/07 09:57:09;;;;;;;19.30;17.47;;;16.20;99.90;;;;;;5033215;28;20984;-82
2023/08/07 09:59:36;;;;;;;8.33;4.20;;;16.10;99.90;;;;;;5036405;28;20472;-79
2023/08/07 10:02:04;;;;;;;8.03;4.13;;;16.00;99.90;;;;;;5038386;28;20548;-81
2023/08/07 10:04:32;;;;;;;8.23;4.47;;;15.90;99.90;;;;;;5038293;28;21269;-81
2023/08/07 10:06:59;;;;;;;7.80;4.10;;;15.80;99.90;;;;;;5038434;28;20457;-82
2023/08/07 10:09:28;;;;;;;10.50;3.77;;;15.70;99.90;;;;;;5037835;28;21016;-79
2023/08/07 10:11:56;;;;;;;7.77;3.50;;;15.60;99.90;;;;;;5038104;28;20448;-81
2023/08/07 10:14:23;;;;;;;6.43;3.23;;;15.60;99.90;;;;;;5038044;28;20523;-80
2023/08/07 10:16:51;;;;;;;8.37;3.90;;;15.60;99.90;;;;;;5037539;28;20457;-79
2023/08/07 10:19:18;;;;;;;6.27;2.73;;;15.80;99.90;;;;;;5037488;28;20496;-79
2023/08/07 10:21:46;;;;;;;7.53;4.30;;;16.10;99.90;;;;;;5037890;28;20525;-80
2023/08/07 10:24:13;;;;;;;6.30;4.23;;;16.70;99.90;;;;;;5037905;28;20511;-81
2023/08/07 10:26:43;;;;;;;7.10;4.37;;;17.20;99.90;;;;;;5037456;28;20489;-81
2023/08/07 10:29:17;;;;;;;7.70;4.40;;;17.60;99.90;;;;;;5037641;28;21179;-79
2023/08/07 10:31:46;;;;;;;13.70;4.90;;;18.10;99.90;;;;;;5037904;28;20460;-81
2023/08/07 10:34:13;;;;;;;8.50;3.90;;;18.50;99.90;;;;;;5038334;28;20452;-83
2023/08/07 10:36:41;;;;;;;8.13;3.80;;;18.60;99.90;;;;;;5038193;28;20451;-81
2023/08/07 10:39:08;;;;;;;6.13;3.37;;;18.40;99.90;;;;;;5037890;28;20511;-80
2023/08/07 10:41:46;;;;;;;4.50;3.57;;;18.10;99.90;;;;;;5037918;28;21007;-84
2023/08/07 10:44:21;;;;;;;7.77;3.13;;;17.80;99.90;;;;;;5038605;28;20517;-83
2023/08/07 10:46:50;;;;;;;11.13;4.00;;;17.50;99.90;;;;;;5037580;28;20492;-80
2023/08/07 10:49:35;;;;;;;7.10;3.77;;;17.60;99.90;;;;;;5037457;28;20477;-79
2023/08/07 10:52:10;;;;;;;6.47;3.13;;;17.60;99.90;;;;;;5037776;28;20546;-80
2023/08/07 10:54:42;;;;;;;6.33;2.90;;;17.70;99.90;;;;;;5037492;28;20446;-80
2023/08/07 10:57:12;;;;;;;8.13;3.90;;;17.50;99.90;;;;;;5037304;28;20816;-79
2023/08/07 10:59:45;;;;;;;8.50;4.03;;;17.50;99.90;;;;;;5038928;28;20482;-81
2023/08/07 11:02:14;;;;;;;9.47;3.20;;;17.40;99.90;;;;;;5039465;28;20850;-82
2023/08/07 11:04:41;;;;;;;7.40;3.60;;;17.40;99.90;;;;;;5038330;28;20460;-80
2023/08/07 11:07:08;;;;;;;10.20;3.60;;;17.60;99.90;;;;;;5037658;28;20523;-80
2023/08/07 11:09:35;;;;;;;10.33;4.40;;;17.70;99.90;;;;;;5074488;22;20581;-82
2023/08/07 11:12:02;;;;;;;9.57;3.50;;;18.10;99.90;;;;;;5059715;28;20477;-81
2023/08/07 11:14:29;;;;;;;9.80;3.60;;;18.50;99.90;;;;;;5061907;28;20448;-83
2023/08/07 11:16:57;;;;;;;4.53;3.30;;;18.70;99.90;;;;;;5059642;28;20452;-83
2023/08/07 11:19:25;;;;;;;13.10;3.17;;;18.90;99.90;;;;;;5061374;28;20524;-83
2023/08/07 11:21:54;;;;;;;9.23;3.27;;;19.40;99.90;;;;;;5059706;28;20444;-82
2023/08/07 11:24:22;;;;;;;8.30;3.23;;;19.80;99.90;;;;;;5059228;28;20503;-83
2023/08/07 11:26:49;;;;;;;8.87;3.13;;;19.80;99.90;;;;;;5059291;28;20487;-83
2023/08/07 11:29:18;;;;;;;11.40;4.00;;;19.70;99.90;;;;;;5060927;28;20478;-83
2023/08/07 11:31:46;;;;;;;8.20;2.60;;;19.80;99.90;;;;;;5059642;28;20927;-82
2023/08/07 11:34:14;;;;;;;6.00;2.50;;;19.90;99.90;;;;;;5058286;28;20454;-83
2023/08/07 11:36:43;;;;;;;8.40;3.30;;;19.90;99.90;;;;;;5056657;28;20448;-81
2023/08/07 11:39:10;;;;;;;9.33;2.90;;;19.70;99.90;;;;;;5055511;28;20467;-82
2023/08/07 11:41:37;;;;;;;4.70;3.23;;;19.50;99.90;;;;;;5057980;28;20452;-81
2023/08/07 11:44:05;;;;;;;11.00;4.20;;;19.20;99.90;;;;;;5058568;28;20452;-83
2023/08/07 11:46:32;;;;;;;4.50;2.80;;;18.90;99.90;;;;;;5058076;28;20487;-83
2023/08/07 11:48:59;;;;;;;5.80;2.63;;;18.90;99.90;;;;;;5057910;28;20470;-83
2023/08/07 11:51:27;;;;;;;3.67;2.30;;;19.20;99.90;;;;;;5057918;28;20472;-83
2023/08/07 11:53:57;;;;;;;10.10;3.30;;;19.60;99.90;;;;;;5056780;28;20921;-81
2023/08/07 11:56:25;;;;;;;7.57;3.13;;;20.20;99.90;;;;;;5056372;28;20547;-82
2023/08/07 11:58:53;;;;;;;5.20;2.10;;;20.80;99.90;;;;;;5056056;28;20483;-81
2023/08/07 12:01:21;;;;;;;6.50;2.27;;;21.20;1.00;;;;;;5056303;28;20456;-83
2023/08/07 12:03:53;;;;;;;7.90;2.60;;;21.50;47.90;;;;;;5056615;28;20452;-81
2023/08/07 12:06:20;;;;;;;3.03;2.00;;;21.50;21.90;;;;;;5057546;28;20510;-82
2023/08/07 12:08:51;;;;;;;4.53;2.00;;;21.60;13.00;;;;;;5056717;28;20569;-83
2023/08/07 12:11:20;;;;;;;3.33;1.97;;;21.50;1.00;;;;;;5056556;28;20452;-83
2023/08/07 12:13:47;;;;;;;6.83;1.90;;;21.50;42.60;;;;;;5056798;28;20484;-81
2023/08/07 12:16:16;;;;;;;5.67;2.60;;;21.20;99.90;;;;;;5056216;28;20520;-81
2023/08/07 12:18:45;;;;;;;5.87;2.60;;;21.00;1.00;;;;;;5053925;28;20840;-82
2023/08/07 12:21:12;;;;;;;5.00;2.53;;;21.40;99.90;;;;;;5054875;28;20991;-79
2023/08/07 12:23:38;;;;;;;8.43;2.40;;;21.20;99.90;;;;;;5055767;28;20554;-82
2023/08/07 12:26:07;;;;;;;5.53;2.37;;;20.70;91.70;;;;;;5055161;28;20489;-81
2023/08/07 12:28:35;;;;;;;8.60;2.90;;;20.40;99.90;;;;;;5055438;28;20464;-80
2023/08/07 12:31:03;;;;;;;6.93;2.30;;;20.20;33.10;;;;;;5055271;28;20960;-82
2023/08/07 12:33:30;;;;;;;6.00;2.20;;;20.20;4.00;;;;;;5056022;28;21080;-81
2023/08/07 12:35:57;;;;;;;7.77;2.30;;;20.30;80.00;;;;;;5055354;28;20826;-81
2023/08/07 12:38:24;;;;;;;4.93;2.20;;;20.40;1.00;;;;;;5056039;28;20564;-81
2023/08/07 12:40:51;;;;;;;4.10;2.40;;;20.70;94.20;;;;;;5055617;28;20454;-79
2023/08/07 12:43:19;;;;;;;4.67;2.20;;;21.10;1.00;;;;;;5056082;28;20439;-82
2023/08/07 12:45:46;;;;;;;6.80;2.13;;;21.30;99.90;;;;;;5056138;28;20510;-82
2023/08/07 12:48:13;;;;;;;6.10;2.20;;;21.40;1.00;;;;;;5057531;28;20454;-81